Michael S — WDE9794 — position and weather

sailwx.info

Track history (hours):
 
Tides and Currents Weather Stations Pressure Air Temp Water Temp Dewpoint Dewpoint Depression Visibility Wind Speed Wind Dir Waves Ship Positions

Michael S

More information available from US FCC via Universal Licensing System and Coast Guard Vessel Documentation Center.

Last reported at 2014-Sep-15 05:28 UTC. Time now 2014-Sep-16 02:59 UTC.
Position N 29°55' W 090°05'.

Length 33 m; draft 3 m.

Type: Towing. MMSI: 367413700.

Date/timePositionNaut miles runAvg speedWind from/ knotsBaromVisibWave heightAir tempDewpointWater temp
2014-Sep-15 05:28N 29°55' W 090°05'13 2.1
2014-Sep-14 23:16N 29°56' W 090°20'3 2.7
2014-Sep-14 22:20N 29°57' W 090°23'0 0.1
2014-Sep-14 21:31N 29°57' W 090°23'1 0.6
2014-Sep-14 20:33N 29°57' W 090°24'1 0.5
2014-Sep-14 19:31N 29°57' W 090°23'0 0.0
2014-Sep-14 18:31N 29°57' W 090°23'1 0.6
2014-Sep-14 17:33N 29°57' W 090°22'1 0.1
2014-Sep-14 12:33N 29°57' W 090°23'0 0.0
2014-Sep-14 11:30N 29°57' W 090°23'0 0.0
2014-Sep-14 10:33N 29°57' W 090°23'0 0.0
2014-Sep-14 09:33N 29°57' W 090°23'0 0.0
2014-Sep-14 08:30N 29°57' W 090°23'0 0.0
2014-Sep-14 07:30N 29°57' W 090°23'0 0.0
2014-Sep-14 06:33N 29°57' W 090°23'0 0.0
2014-Sep-14 05:33N 29°57' W 090°23'0 0.0
2014-Sep-14 04:33N 29°57' W 090°23'0 0.0
2014-Sep-14 03:33N 29°57' W 090°23'0 0.0
2014-Sep-14 02:30N 29°57' W 090°23'0 0.0
2014-Sep-14 01:30N 29°57' W 090°23'6 1.3
2014-Sep-13 21:14N 29°58' W 090°17'5 7.8
2014-Sep-13 20:33N 29°56' W 090°23'0 0.4
2014-Sep-13 19:33N 29°57' W 090°23'0 0.0
2014-Sep-13 18:33N 29°57' W 090°23'4 0.3
2014-Sep-13 03:30N 29°57' W 090°18'1 1.2
2014-Sep-13 02:26N 29°56' W 090°20'0 0.1
2014-Sep-13 01:19N 29°56' W 090°20'810.5
2014-Sep-13 00:33N 29°60' W 090°28'1 0.5
2014-Sep-12 23:31N 30°00' W 090°28'8 8.1
2014-Sep-12 22:31N 29°56' W 090°20'4 0.4
2014-Sep-12 12:33N 29°59' W 090°24'0 0.0
2014-Sep-12 11:33N 29°59' W 090°24'0 0.0
2014-Sep-12 10:33N 29°59' W 090°24'0 0.0
2014-Sep-12 09:33N 29°59' W 090°24'0 0.0
2014-Sep-12 08:30N 29°59' W 090°24'0 0.0
2014-Sep-12 07:33N 29°59' W 090°24'1 1.1
2014-Sep-12 06:32N 29°60' W 090°25'1 1.1
2014-Sep-12 05:31N 29°59' W 090°24'1 0.6
2014-Sep-12 04:33N 29°59' W 090°24'10 9.5
2014-Sep-12 03:33N 30°03' W 090°34'0 0.0
2014-Sep-12 02:33N 30°03' W 090°34'2 2.3
2014-Sep-12 01:32N 30°02' W 090°37'0 0.4
2014-Sep-12 00:33N 30°03' W 090°36'1 1.2
2014-Sep-11 23:32N 30°03' W 090°35'1 0.9
2014-Sep-11 22:32N 30°03' W 090°36'5 5.0
2014-Sep-11 21:33N 30°03' W 090°30'9 1.0
2014-Sep-11 12:31N 29°57' W 090°23'1 0.6
2014-Sep-11 11:33N 29°57' W 090°23'2 1.6
2014-Sep-11 10:31N 29°59' W 090°24'0 0.0
2014-Sep-11 09:31N 29°59' W 090°24'0 0.0
2014-Sep-11 08:31N 29°59' W 090°24'0 0.0
2014-Sep-11 07:31N 29°59' W 090°24'0 0.0
2014-Sep-11 06:31N 29°59' W 090°24'1 0.5
2014-Sep-11 05:32N 29°59' W 090°24'0 0.0
2014-Sep-11 04:33N 29°59' W 090°24'10 9.6
2014-Sep-11 03:33N 30°03' W 090°34'2 1.5
2014-Sep-11 02:33N 30°03' W 090°36'4 3.9
2014-Sep-11 01:33N 30°03' W 090°31'6 5.3
2014-Sep-11 00:31N 29°60' W 090°26'2 1.8
2014-Sep-10 23:33N 29°59' W 090°24'0 0.4
2014-Sep-10 22:33N 29°59' W 090°24'3 0.3
2014-Sep-10 12:33N 29°57' W 090°23'0 0.0
2014-Sep-10 11:33N 29°57' W 090°23'0 0.0
2014-Sep-10 10:27N 29°57' W 090°23'0 0.0
2014-Sep-10 09:33N 29°57' W 090°23'0 0.0
2014-Sep-10 08:33N 29°57' W 090°23'0 0.0
2014-Sep-10 07:30N 29°57' W 090°23'0 0.0
2014-Sep-10 06:30N 29°57' W 090°23'0 0.0
2014-Sep-10 05:30N 29°57' W 090°23'0 0.0
2014-Sep-10 04:33N 29°57' W 090°23'0 0.0
2014-Sep-10 03:33N 29°57' W 090°23'0 0.0
2014-Sep-10 02:33N 29°57' W 090°23'0 0.0
2014-Sep-10 01:27N 29°57' W 090°23'0 0.0
2014-Sep-10 00:33N 29°57' W 090°23'0 0.0
2014-Sep-09 23:30N 29°57' W 090°23'0 0.0
2014-Sep-09 22:33N 29°57' W 090°23'0 0.0
2014-Sep-09 12:33N 29°57' W 090°23'3 2.9
2014-Sep-09 11:33N 29°56' W 090°20'8 7.5
2014-Sep-09 10:31N 29°60' W 090°28'0 0.0
2014-Sep-09 09:31N 29°60' W 090°28'2 2.5
2014-Sep-09 08:33N 29°60' W 090°25'3 3.3
2014-Sep-09 07:31N 29°57' W 090°23'0 0.0
2014-Sep-09 06:31N 29°57' W 090°23'0 0.0
2014-Sep-09 05:07N 29°57' W 090°23'0 0.0
2014-Sep-09 04:28N 29°57' W 090°23'0 0.0
2014-Sep-09 03:31N 29°57' W 090°23'0 0.0
2014-Sep-09 02:31N 29°57' W 090°23'0 0.0
2014-Sep-09 01:28N 29°57' W 090°23'0 0.0
2014-Sep-09 00:31N 29°57' W 090°23'0 0.0
2014-Sep-08 23:31N 29°57' W 090°23'0 0.0
2014-Sep-08 22:25N 29°57' W 090°23'3 0.3
2014-Sep-08 10:10N 29°56' W 090°19'3 2.9
2014-Sep-08 09:12N 29°58' W 090°17'5 6.9
2014-Sep-08 08:31N 29°55' W 090°12'  
Track history (hours):
 
Tides and Currents Weather Stations Pressure Air Temp Water Temp Dewpoint Dewpoint Depression Visibility Wind Speed Wind Dir Waves Ship Positions

Michael S

More information available from US FCC via Universal Licensing System and Coast Guard Vessel Documentation Center.

Last reported at 2014-Sep-15 05:28 UTC. Time now 2014-Sep-16 02:59 UTC.
Position N 29°55' W 090°05'.

Length 33 m; draft 3 m.

Type: Towing. MMSI: 367413700.

Date/timePositionNaut miles runAvg speedWind from/ knotsBaromVisibWave heightAir tempDewpointWater temp
2014-Sep-15 05:28N 29°55' W 090°05'13 2.1
2014-Sep-14 23:16N 29°56' W 090°20'3 2.7
2014-Sep-14 22:20N 29°57' W 090°23'0 0.1
2014-Sep-14 21:31N 29°57' W 090°23'1 0.6
2014-Sep-14 20:33N 29°57' W 090°24'1 0.5
2014-Sep-14 19:31N 29°57' W 090°23'0 0.0
2014-Sep-14 18:31N 29°57' W 090°23'1 0.6
2014-Sep-14 17:33N 29°57' W 090°22'1 0.1
2014-Sep-14 12:33N 29°57' W 090°23'0 0.0
2014-Sep-14 11:30N 29°57' W 090°23'0 0.0
2014-Sep-14 10:33N 29°57' W 090°23'0 0.0
2014-Sep-14 09:33N 29°57' W 090°23'0 0.0
2014-Sep-14 08:30N 29°57' W 090°23'0 0.0
2014-Sep-14 07:30N 29°57' W 090°23'0 0.0
2014-Sep-14 06:33N 29°57' W 090°23'0 0.0
2014-Sep-14 05:33N 29°57' W 090°23'0 0.0
2014-Sep-14 04:33N 29°57' W 090°23'0 0.0
2014-Sep-14 03:33N 29°57' W 090°23'0 0.0
2014-Sep-14 02:30N 29°57' W 090°23'0 0.0
2014-Sep-14 01:30N 29°57' W 090°23'6 1.3
2014-Sep-13 21:14N 29°58' W 090°17'5 7.8
2014-Sep-13 20:33N 29°56' W 090°23'0 0.4
2014-Sep-13 19:33N 29°57' W 090°23'0 0.0
2014-Sep-13 18:33N 29°57' W 090°23'4 0.3
2014-Sep-13 03:30N 29°57' W 090°18'1 1.2
2014-Sep-13 02:26N 29°56' W 090°20'0 0.1
2014-Sep-13 01:19N 29°56' W 090°20'810.5
2014-Sep-13 00:33N 29°60' W 090°28'1 0.5
2014-Sep-12 23:31N 30°00' W 090°28'8 8.1
2014-Sep-12 22:31N 29°56' W 090°20'4 0.4
2014-Sep-12 12:33N 29°59' W 090°24'0 0.0
2014-Sep-12 11:33N 29°59' W 090°24'0 0.0
2014-Sep-12 10:33N 29°59' W 090°24'0 0.0
2014-Sep-12 09:33N 29°59' W 090°24'0 0.0
2014-Sep-12 08:30N 29°59' W 090°24'0 0.0
2014-Sep-12 07:33N 29°59' W 090°24'1 1.1
2014-Sep-12 06:32N 29°60' W 090°25'1 1.1
2014-Sep-12 05:31N 29°59' W 090°24'1 0.6
2014-Sep-12 04:33N 29°59' W 090°24'10 9.5
2014-Sep-12 03:33N 30°03' W 090°34'0 0.0
2014-Sep-12 02:33N 30°03' W 090°34'2 2.3
2014-Sep-12 01:32N 30°02' W 090°37'0 0.4
2014-Sep-12 00:33N 30°03' W 090°36'1 1.2
2014-Sep-11 23:32N 30°03' W 090°35'1 0.9
2014-Sep-11 22:32N 30°03' W 090°36'5 5.0
2014-Sep-11 21:33N 30°03' W 090°30'9 1.0
2014-Sep-11 12:31N 29°57' W 090°23'1 0.6
2014-Sep-11 11:33N 29°57' W 090°23'2 1.6
2014-Sep-11 10:31N 29°59' W 090°24'0 0.0
2014-Sep-11 09:31N 29°59' W 090°24'0 0.0
2014-Sep-11 08:31N 29°59' W 090°24'0 0.0
2014-Sep-11 07:31N 29°59' W 090°24'0 0.0
2014-Sep-11 06:31N 29°59' W 090°24'1 0.5
2014-Sep-11 05:32N 29°59' W 090°24'0 0.0
2014-Sep-11 04:33N 29°59' W 090°24'10 9.6
2014-Sep-11 03:33N 30°03' W 090°34'2 1.5
2014-Sep-11 02:33N 30°03' W 090°36'4 3.9
2014-Sep-11 01:33N 30°03' W 090°31'6 5.3
2014-Sep-11 00:31N 29°60' W 090°26'2 1.8
2014-Sep-10 23:33N 29°59' W 090°24'0 0.4
2014-Sep-10 22:33N 29°59' W 090°24'3 0.3
2014-Sep-10 12:33N 29°57' W 090°23'0 0.0
2014-Sep-10 11:33N 29°57' W 090°23'0 0.0
2014-Sep-10 10:27N 29°57' W 090°23'0 0.0
2014-Sep-10 09:33N 29°57' W 090°23'0 0.0
2014-Sep-10 08:33N 29°57' W 090°23'0 0.0
2014-Sep-10 07:30N 29°57' W 090°23'0 0.0
2014-Sep-10 06:30N 29°57' W 090°23'0 0.0
2014-Sep-10 05:30N 29°57' W 090°23'0 0.0
2014-Sep-10 04:33N 29°57' W 090°23'0 0.0
2014-Sep-10 03:33N 29°57' W 090°23'0 0.0
2014-Sep-10 02:33N 29°57' W 090°23'0 0.0
2014-Sep-10 01:27N 29°57' W 090°23'0 0.0
2014-Sep-10 00:33N 29°57' W 090°23'0 0.0
2014-Sep-09 23:30N 29°57' W 090°23'0 0.0
2014-Sep-09 22:33N 29°57' W 090°23'0 0.0
2014-Sep-09 12:33N 29°57' W 090°23'3 2.9
2014-Sep-09 11:33N 29°56' W 090°20'8 7.5
2014-Sep-09 10:31N 29°60' W 090°28'0 0.0
2014-Sep-09 09:31N 29°60' W 090°28'2 2.5
2014-Sep-09 08:33N 29°60' W 090°25'3 3.3
2014-Sep-09 07:31N 29°57' W 090°23'0 0.0
2014-Sep-09 06:31N 29°57' W 090°23'0 0.0
2014-Sep-09 05:07N 29°57' W 090°23'0 0.0
2014-Sep-09 04:28N 29°57' W 090°23'0 0.0
2014-Sep-09 03:31N 29°57' W 090°23'0 0.0
2014-Sep-09 02:31N 29°57' W 090°23'0 0.0
2014-Sep-09 01:28N 29°57' W 090°23'0 0.0
2014-Sep-09 00:31N 29°57' W 090°23'0 0.0
2014-Sep-08 23:31N 29°57' W 090°23'0 0.0
2014-Sep-08 22:25N 29°57' W 090°23'3 0.3
2014-Sep-08 10:10N 29°56' W 090°19'3 2.9
2014-Sep-08 09:12N 29°58' W 090°17'5 6.9
2014-Sep-08 08:31N 29°55' W 090°12'  

Dump ship's entire track history